sensor_id;sensor_type;location;lat;lon;timestamp;P1;durP1;ratioP1;P2;durP2;ratioP2
73331;SDS011;61560;33.718;73.040;2023-06-19T00:01:35;15.18;;;7.38;;
73331;SDS011;61560;33.718;73.040;2023-06-19T00:04:03;16.65;;;8.60;;
73331;SDS011;61560;33.718;73.040;2023-06-19T00:06:31;15.25;;;8.93;;
73331;SDS011;61560;33.718;73.040;2023-06-19T00:08:58;14.60;;;8.38;;
73331;SDS011;61560;33.718;73.040;2023-06-19T00:11:26;12.00;;;6.85;;
73331;SDS011;61560;33.718;73.040;2023-06-19T00:13:53;16.52;;;8.70;;
73331;SDS011;61560;33.718;73.040;2023-06-19T00:16:21;11.65;;;7.10;;
73331;SDS011;61560;33.718;73.040;2023-06-19T00:18:51;13.60;;;7.30;;
73331;SDS011;61560;33.718;73.040;2023-06-19T00:21:22;9.88;;;5.78;;
73331;SDS011;61560;33.718;73.040;2023-06-19T00:23:51;16.35;;;9.45;;
73331;SDS011;61560;33.718;73.040;2023-06-19T00:26:19;12.93;;;6.95;;
73331;SDS011;61560;33.718;73.040;2023-06-19T00:28:49;12.00;;;6.90;;
73331;SDS011;61560;33.718;73.040;2023-06-19T00:31:16;14.05;;;7.20;;
73331;SDS011;61560;33.718;73.040;2023-06-19T00:33:45;12.38;;;6.95;;
73331;SDS011;61560;33.718;73.040;2023-06-19T00:36:16;12.00;;;7.15;;
73331;SDS011;61560;33.718;73.040;2023-06-19T00:38:47;13.77;;;7.72;;
73331;SDS011;61560;33.718;73.040;2023-06-19T00:41:15;19.10;;;9.05;;
73331;SDS011;61560;33.718;73.040;2023-06-19T00:43:46;16.90;;;9.30;;
73331;SDS011;61560;33.718;73.040;2023-06-19T00:46:13;13.88;;;7.35;;
73331;SDS011;61560;33.718;73.040;2023-06-19T00:48:41;15.00;;;9.63;;
73331;SDS011;61560;33.718;73.040;2023-06-19T00:51:09;19.35;;;10.43;;
73331;SDS011;61560;33.718;73.040;2023-06-19T00:53:38;17.63;;;9.55;;
73331;SDS011;61560;33.718;73.040;2023-06-19T00:56:05;12.65;;;6.85;;
73331;SDS011;61560;33.718;73.040;2023-06-19T00:58:33;13.32;;;7.07;;
73331;SDS011;61560;33.718;73.040;2023-06-19T01:01:01;14.07;;;7.55;;
73331;SDS011;61560;33.718;73.040;2023-06-19T01:03:29;14.23;;;7.60;;
73331;SDS011;61560;33.718;73.040;2023-06-19T01:05:56;13.55;;;7.28;;
73331;SDS011;61560;33.718;73.040;2023-06-19T01:10:58;16.38;;;8.00;;
73331;SDS011;61560;33.718;73.040;2023-06-19T01:13:30;14.23;;;8.05;;
73331;SDS011;61560;33.718;73.040;2023-06-19T01:15:58;12.52;;;7.70;;
73331;SDS011;61560;33.718;73.040;2023-06-19T01:18:31;14.63;;;6.88;;
73331;SDS011;61560;33.718;73.040;2023-06-19T01:21:12;12.10;;;7.20;;
73331;SDS011;61560;33.718;73.040;2023-06-19T01:23:42;12.40;;;7.93;;
73331;SDS011;61560;33.718;73.040;2023-06-19T01:26:11;13.00;;;7.63;;
73331;SDS011;61560;33.718;73.040;2023-06-19T01:28:40;15.88;;;8.45;;
73331;SDS011;61560;33.718;73.040;2023-06-19T01:34:09;12.50;;;6.30;;
73331;SDS011;61560;33.718;73.040;2023-06-19T01:36:41;11.13;;;6.55;;
73331;SDS011;61560;33.718;73.040;2023-06-19T01:39:09;12.00;;;6.50;;
73331;SDS011;61560;33.718;73.040;2023-06-19T01:41:38;9.45;;;6.00;;
73331;SDS011;61560;33.718;73.040;2023-06-19T01:44:09;9.63;;;5.70;;
73331;SDS011;61560;33.718;73.040;2023-06-19T01:46:38;10.98;;;6.45;;
73331;SDS011;61560;33.718;73.040;2023-06-19T01:49:06;11.77;;;7.03;;
73331;SDS011;61560;33.718;73.040;2023-06-19T01:51:36;12.63;;;6.70;;
73331;SDS011;61560;33.718;73.040;2023-06-19T01:54:03;11.43;;;6.90;;
73331;SDS011;61560;33.718;73.040;2023-06-19T01:56:31;13.85;;;9.35;;
73331;SDS011;61560;33.718;73.040;2023-06-19T01:58:59;17.20;;;9.45;;
73331;SDS011;61560;33.718;73.040;2023-06-19T02:01:27;16.15;;;9.35;;
73331;SDS011;61560;33.718;73.040;2023-06-19T02:03:55;12.32;;;7.45;;
73331;SDS011;61560;33.718;73.040;2023-06-19T02:06:23;13.85;;;6.72;;
73331;SDS011;61560;33.718;73.040;2023-06-19T02:08:50;8.38;;;6.10;;
73331;SDS011;61560;33.718;73.040;2023-06-19T02:11:18;16.33;;;7.30;;
73331;SDS011;61560;33.718;73.040;2023-06-19T02:13:48;15.48;;;7.05;;
73331;SDS011;61560;33.718;73.040;2023-06-19T02:16:16;13.48;;;7.55;;
73331;SDS011;61560;33.718;73.040;2023-06-19T02:18:44;18.50;;;9.75;;
73331;SDS011;61560;33.718;73.040;2023-06-19T02:21:12;15.43;;;8.90;;
73331;SDS011;61560;33.718;73.040;2023-06-19T02:23:39;23.13;;;12.65;;
73331;SDS011;61560;33.718;73.040;2023-06-19T02:26:07;22.73;;;12.50;;
73331;SDS011;61560;33.718;73.040;2023-06-19T02:28:34;22.08;;;11.48;;
73331;SDS011;61560;33.718;73.040;2023-06-19T02:31:05;22.77;;;13.13;;
73331;SDS011;61560;33.718;73.040;2023-06-19T02:33:33;20.85;;;11.57;;
73331;SDS011;61560;33.718;73.040;2023-06-19T02:36:01;23.25;;;11.90;;
73331;SDS011;61560;33.718;73.040;2023-06-19T02:38:32;22.65;;;11.02;;
73331;SDS011;61560;33.718;73.040;2023-06-19T02:41:00;20.48;;;10.15;;
73331;SDS011;61560;33.718;73.040;2023-06-19T02:43:27;22.73;;;10.98;;
73331;SDS011;61560;33.718;73.040;2023-06-19T02:45:55;23.55;;;11.10;;
73331;SDS011;61560;33.718;73.040;2023-06-19T02:48:23;21.35;;;11.00;;
73331;SDS011;61560;33.718;73.040;2023-06-19T02:50:51;22.08;;;11.23;;
73331;SDS011;61560;33.718;73.040;2023-06-19T02:53:18;31.08;;;16.05;;
73331;SDS011;61560;33.718;73.040;2023-06-19T02:55:46;30.15;;;12.85;;
73331;SDS011;61560;33.718;73.040;2023-06-19T02:58:14;22.83;;;12.50;;
73331;SDS011;61560;33.718;73.040;2023-06-19T03:00:41;28.08;;;13.23;;
73331;SDS011;61560;33.718;73.040;2023-06-19T03:03:09;20.80;;;10.70;;
73331;SDS011;61560;33.718;73.040;2023-06-19T03:05:38;28.63;;;14.05;;
73331;SDS011;61560;33.718;73.040;2023-06-19T03:08:08;24.63;;;10.18;;
73331;SDS011;61560;33.718;73.040;2023-06-19T03:10:36;22.13;;;12.05;;
73331;SDS011;61560;33.718;73.040;2023-06-19T03:13:04;23.50;;;12.30;;
73331;SDS011;61560;33.718;73.040;2023-06-19T03:15:32;23.40;;;11.77;;
73331;SDS011;61560;33.718;73.040;2023-06-19T03:18:00;17.35;;;9.52;;
73331;SDS011;61560;33.718;73.040;2023-06-19T03:20:31;14.15;;;7.82;;
73331;SDS011;61560;33.718;73.040;2023-06-19T03:22:59;22.02;;;10.27;;
73331;SDS011;61560;33.718;73.040;2023-06-19T03:25:28;18.92;;;9.90;;
73331;SDS011;61560;33.718;73.040;2023-06-19T03:28:02;12.63;;;7.88;;
73331;SDS011;61560;33.718;73.040;2023-06-19T03:30:30;16.40;;;7.50;;
73331;SDS011;61560;33.718;73.040;2023-06-19T03:32:58;10.27;;;6.85;;
73331;SDS011;61560;33.718;73.040;2023-06-19T03:35:45;11.00;;;6.68;;
73331;SDS011;61560;33.718;73.040;2023-06-19T03:38:30;17.30;;;7.28;;
73331;SDS011;61560;33.718;73.040;2023-06-19T03:40:58;11.85;;;7.18;;
73331;SDS011;61560;33.718;73.040;2023-06-19T03:43:26;11.10;;;7.28;;
73331;SDS011;61560;33.718;73.040;2023-06-19T03:45:57;14.75;;;8.32;;
73331;SDS011;61560;33.718;73.040;2023-06-19T03:48:26;12.65;;;7.82;;
73331;SDS011;61560;33.718;73.040;2023-06-19T03:51:07;12.05;;;6.72;;
73331;SDS011;61560;33.718;73.040;2023-06-19T03:53:38;9.48;;;6.63;;
73331;SDS011;61560;33.718;73.040;2023-06-19T03:56:06;12.77;;;6.68;;
73331;SDS011;61560;33.718;73.040;2023-06-19T03:58:35;14.18;;;8.18;;
73331;SDS011;61560;33.718;73.040;2023-06-19T04:01:02;18.80;;;8.82;;
73331;SDS011;61560;33.718;73.040;2023-06-19T04:03:31;24.88;;;11.13;;
73331;SDS011;61560;33.718;73.040;2023-06-19T04:05:59;19.35;;;8.65;;
73331;SDS011;61560;33.718;73.040;2023-06-19T04:08:27;14.20;;;7.70;;
73331;SDS011;61560;33.718;73.040;2023-06-19T04:10:54;13.55;;;7.18;;
73331;SDS011;61560;33.718;73.040;2023-06-19T04:13:22;11.93;;;7.47;;
73331;SDS011;61560;33.718;73.040;2023-06-19T04:15:52;15.25;;;7.90;;
73331;SDS011;61560;33.718;73.040;2023-06-19T04:18:20;12.25;;;7.78;;
73331;SDS011;61560;33.718;73.040;2023-06-19T04:20:47;11.05;;;7.10;;
73331;SDS011;61560;33.718;73.040;2023-06-19T04:23:15;7.95;;;6.43;;
73331;SDS011;61560;33.718;73.040;2023-06-19T04:25:43;18.25;;;7.35;;
73331;SDS011;61560;33.718;73.040;2023-06-19T04:28:10;10.23;;;6.72;;
73331;SDS011;61560;33.718;73.040;2023-06-19T04:30:38;9.90;;;6.15;;
73331;SDS011;61560;33.718;73.040;2023-06-19T04:33:06;12.65;;;6.85;;
73331;SDS011;61560;33.718;73.040;2023-06-19T04:35:34;13.30;;;7.35;;
73331;SDS011;61560;33.718;73.040;2023-06-19T04:38:06;13.50;;;6.95;;
73331;SDS011;61560;33.718;73.040;2023-06-19T04:40:34;17.05;;;6.95;;
73331;SDS011;61560;33.718;73.040;2023-06-19T04:43:02;15.02;;;6.90;;
73331;SDS011;61560;33.718;73.040;2023-06-19T04:45:31;9.43;;;6.80;;
73331;SDS011;61560;33.718;73.040;2023-06-19T04:47:59;10.27;;;6.43;;
73331;SDS011;61560;33.718;73.040;2023-06-19T04:50:29;12.43;;;7.35;;
73331;SDS011;61560;33.718;73.040;2023-06-19T04:52:56;26.38;;;18.77;;
73331;SDS011;61560;33.718;73.040;2023-06-19T04:55:24;52.20;;;40.92;;
73331;SDS011;61560;33.718;73.040;2023-06-19T04:57:52;19.33;;;14.70;;
73331;SDS011;61560;33.718;73.040;2023-06-19T05:00:20;16.50;;;9.70;;
73331;SDS011;61560;33.718;73.040;2023-06-19T05:02:49;13.85;;;8.15;;
73331;SDS011;61560;33.718;73.040;2023-06-19T05:05:17;14.50;;;7.45;;
73331;SDS011;61560;33.718;73.040;2023-06-19T05:07:46;14.48;;;8.05;;
73331;SDS011;61560;33.718;73.040;2023-06-19T05:10:14;15.48;;;7.93;;
73331;SDS011;61560;33.718;73.040;2023-06-19T05:12:42;16.55;;;8.23;;
73331;SDS011;61560;33.718;73.040;2023-06-19T05:15:10;11.48;;;7.85;;
73331;SDS011;61560;33.718;73.040;2023-06-19T05:17:38;14.77;;;7.70;;
73331;SDS011;61560;33.718;73.040;2023-06-19T05:20:05;14.98;;;8.65;;
73331;SDS011;61560;33.718;73.040;2023-06-19T05:22:33;11.95;;;8.00;;
73331;SDS011;61560;33.718;73.040;2023-06-19T05:25:03;18.42;;;8.50;;
73331;SDS011;61560;33.718;73.040;2023-06-19T05:27:30;12.35;;;8.18;;
73331;SDS011;61560;33.718;73.040;2023-06-19T05:29:58;16.85;;;9.30;;
73331;SDS011;61560;33.718;73.040;2023-06-19T05:32:25;18.60;;;9.05;;
73331;SDS011;61560;33.718;73.040;2023-06-19T05:35:03;12.65;;;8.55;;
73331;SDS011;61560;33.718;73.040;2023-06-19T05:37:44;18.08;;;9.65;;
73331;SDS011;61560;33.718;73.040;2023-06-19T05:40:12;16.13;;;8.82;;
73331;SDS011;61560;33.718;73.040;2023-06-19T05:42:40;17.52;;;8.95;;
73331;SDS011;61560;33.718;73.040;2023-06-19T05:45:07;14.23;;;8.48;;
73331;SDS011;61560;33.718;73.040;2023-06-19T05:47:35;18.88;;;8.90;;
73331;SDS011;61560;33.718;73.040;2023-06-19T05:50:03;16.50;;;9.45;;
73331;SDS011;61560;33.718;73.040;2023-06-19T05:52:31;18.20;;;8.98;;
73331;SDS011;61560;33.718;73.040;2023-06-19T05:54:59;14.63;;;9.23;;
73331;SDS011;61560;33.718;73.040;2023-06-19T05:57:27;14.82;;;9.82;;
73331;SDS011;61560;33.718;73.040;2023-06-19T05:59:55;18.95;;;9.05;;
73331;SDS011;61560;33.718;73.040;2023-06-19T06:02:23;15.73;;;9.32;;
73331;SDS011;61560;33.718;73.040;2023-06-19T06:04:52;16.58;;;9.15;;
73331;SDS011;61560;33.718;73.040;2023-06-19T06:07:20;15.80;;;9.13;;
73331;SDS011;61560;33.718;73.040;2023-06-19T06:09:48;14.88;;;9.05;;
73331;SDS011;61560;33.718;73.040;2023-06-19T06:12:16;18.13;;;9.40;;
73331;SDS011;61560;33.718;73.040;2023-06-19T06:14:43;21.05;;;9.65;;
73331;SDS011;61560;33.718;73.040;2023-06-19T06:17:12;16.20;;;9.48;;
73331;SDS011;61560;33.718;73.040;2023-06-19T06:19:39;21.08;;;10.20;;
73331;SDS011;61560;33.718;73.040;2023-06-19T06:22:07;18.67;;;11.07;;
73331;SDS011;61560;33.718;73.040;2023-06-19T06:24:34;23.13;;;11.02;;
73331;SDS011;61560;33.718;73.040;2023-06-19T06:27:02;50.50;;;13.27;;
73331;SDS011;61560;33.718;73.040;2023-06-19T06:29:33;21.98;;;11.32;;
73331;SDS011;61560;33.718;73.040;2023-06-19T06:32:04;34.60;;;12.35;;
73331;SDS011;61560;33.718;73.040;2023-06-19T06:34:35;28.52;;;13.10;;
73331;SDS011;61560;33.718;73.040;2023-06-19T06:37:03;28.45;;;11.15;;
73331;SDS011;61560;33.718;73.040;2023-06-19T06:39:31;30.65;;;12.30;;
73331;SDS011;61560;33.718;73.040;2023-06-19T06:41:58;24.27;;;11.43;;
73331;SDS011;61560;33.718;73.040;2023-06-19T06:44:26;22.05;;;10.80;;
73331;SDS011;61560;33.718;73.040;2023-06-19T06:46:54;26.92;;;11.52;;
73331;SDS011;61560;33.718;73.040;2023-06-19T06:49:22;24.15;;;11.52;;
73331;SDS011;61560;33.718;73.040;2023-06-19T06:51:50;21.95;;;11.38;;
73331;SDS011;61560;33.718;73.040;2023-06-19T06:54:17;20.00;;;11.32;;
73331;SDS011;61560;33.718;73.040;2023-06-19T06:56:45;28.10;;;11.98;;
73331;SDS011;61560;33.718;73.040;2023-06-19T06:59:14;28.05;;;12.35;;
73331;SDS011;61560;33.718;73.040;2023-06-19T07:04:11;26.98;;;11.77;;
73331;SDS011;61560;33.718;73.040;2023-06-19T07:06:39;19.23;;;12.00;;
73331;SDS011;61560;33.718;73.040;2023-06-19T07:09:06;26.95;;;12.63;;
73331;SDS011;61560;33.718;73.040;2023-06-19T07:11:34;23.00;;;11.35;;
73331;SDS011;61560;33.718;73.040;2023-06-19T07:14:02;23.23;;;12.52;;
73331;SDS011;61560;33.718;73.040;2023-06-19T07:16:30;24.38;;;12.10;;
73331;SDS011;61560;33.718;73.040;2023-06-19T07:18:58;23.05;;;11.80;;
73331;SDS011;61560;33.718;73.040;2023-06-19T07:21:25;23.75;;;11.35;;
73331;SDS011;61560;33.718;73.040;2023-06-19T07:23:56;29.73;;;13.38;;
73331;SDS011;61560;33.718;73.040;2023-06-19T07:26:25;36.30;;;17.70;;
73331;SDS011;61560;33.718;73.040;2023-06-19T07:28:53;27.33;;;12.93;;
73331;SDS011;61560;33.718;73.040;2023-06-19T07:31:21;23.92;;;11.80;;
73331;SDS011;61560;33.718;73.040;2023-06-19T07:33:48;25.48;;;10.77;;
73331;SDS011;61560;33.718;73.040;2023-06-19T07:36:16;23.48;;;11.23;;
73331;SDS011;61560;33.718;73.040;2023-06-19T07:38:44;18.98;;;10.75;;
73331;SDS011;61560;33.718;73.040;2023-06-19T07:41:12;18.33;;;10.40;;
73331;SDS011;61560;33.718;73.040;2023-06-19T07:43:40;20.92;;;10.07;;
73331;SDS011;61560;33.718;73.040;2023-06-19T07:46:07;17.95;;;9.90;;
73331;SDS011;61560;33.718;73.040;2023-06-19T07:48:36;24.83;;;9.40;;
73331;SDS011;61560;33.718;73.040;2023-06-19T07:51:03;22.33;;;9.00;;
73331;SDS011;61560;33.718;73.040;2023-06-19T07:53:32;20.15;;;9.63;;
73331;SDS011;61560;33.718;73.040;2023-06-19T07:55:59;14.52;;;8.65;;
73331;SDS011;61560;33.718;73.040;2023-06-19T07:58:27;17.23;;;9.50;;
73331;SDS011;61560;33.718;73.040;2023-06-19T08:00:56;15.60;;;9.45;;
73331;SDS011;61560;33.718;73.040;2023-06-19T08:03:24;15.35;;;8.95;;
73331;SDS011;61560;33.718;73.040;2023-06-19T08:05:52;16.73;;;9.40;;
73331;SDS011;61560;33.718;73.040;2023-06-19T08:08:19;15.73;;;9.43;;
73331;SDS011;61560;33.718;73.040;2023-06-19T08:10:47;15.48;;;8.55;;
73331;SDS011;61560;33.718;73.040;2023-06-19T08:13:15;17.48;;;9.82;;
73331;SDS011;61560;33.718;73.040;2023-06-19T08:15:43;15.77;;;9.13;;
73331;SDS011;61560;33.718;73.040;2023-06-19T08:18:11;17.65;;;8.82;;
73331;SDS011;61560;33.718;73.040;2023-06-19T08:20:39;15.65;;;9.23;;
73331;SDS011;61560;33.718;73.040;2023-06-19T08:23:06;21.92;;;10.13;;
73331;SDS011;61560;33.718;73.040;2023-06-19T08:25:34;19.90;;;9.55;;
73331;SDS011;61560;33.718;73.040;2023-06-19T08:28:02;18.35;;;9.73;;
73331;SDS011;61560;33.718;73.040;2023-06-19T08:30:31;17.52;;;9.27;;
73331;SDS011;61560;33.718;73.040;2023-06-19T08:32:59;20.23;;;9.30;;
73331;SDS011;61560;33.718;73.040;2023-06-19T08:35:27;22.52;;;9.43;;
73331;SDS011;61560;33.718;73.040;2023-06-19T08:37:54;13.18;;;8.32;;
73331;SDS011;61560;33.718;73.040;2023-06-19T08:40:22;19.27;;;9.75;;
73331;SDS011;61560;33.718;73.040;2023-06-19T08:42:50;27.60;;;10.45;;
73331;SDS011;61560;33.718;73.040;2023-06-19T08:45:18;14.77;;;9.10;;
73331;SDS011;61560;33.718;73.040;2023-06-19T08:47:47;17.30;;;9.95;;
73331;SDS011;61560;33.718;73.040;2023-06-19T08:50:15;15.43;;;9.32;;
73331;SDS011;61560;33.718;73.040;2023-06-19T08:52:43;17.98;;;10.18;;
73331;SDS011;61560;33.718;73.040;2023-06-19T08:55:11;13.77;;;8.93;;
73331;SDS011;61560;33.718;73.040;2023-06-19T08:57:39;17.70;;;8.60;;
73331;SDS011;61560;33.718;73.040;2023-06-19T09:00:08;15.00;;;8.57;;
73331;SDS011;61560;33.718;73.040;2023-06-19T09:02:42;19.42;;;9.65;;
73331;SDS011;61560;33.718;73.040;2023-06-19T09:05:13;17.52;;;9.02;;
73331;SDS011;61560;33.718;73.040;2023-06-19T09:07:42;18.85;;;9.30;;
73331;SDS011;61560;33.718;73.040;2023-06-19T09:10:12;15.93;;;8.50;;
73331;SDS011;61560;33.718;73.040;2023-06-19T09:12:42;11.90;;;7.97;;
73331;SDS011;61560;33.718;73.040;2023-06-19T09:15:14;16.65;;;8.40;;
73331;SDS011;61560;33.718;73.040;2023-06-19T09:17:42;12.70;;;8.75;;
73331;SDS011;61560;33.718;73.040;2023-06-19T09:20:25;13.23;;;8.43;;
73331;SDS011;61560;33.718;73.040;2023-06-19T09:22:57;18.85;;;8.15;;
73331;SDS011;61560;33.718;73.040;2023-06-19T09:25:26;14.05;;;8.23;;
73331;SDS011;61560;33.718;73.040;2023-06-19T09:27:54;14.63;;;7.95;;
73331;SDS011;61560;33.718;73.040;2023-06-19T09:30:22;16.05;;;8.85;;
73331;SDS011;61560;33.718;73.040;2023-06-19T09:32:51;16.10;;;7.28;;
73331;SDS011;61560;33.718;73.040;2023-06-19T09:35:18;15.57;;;7.22;;
73331;SDS011;61560;33.718;73.040;2023-06-19T09:37:47;12.20;;;7.53;;
73331;SDS011;61560;33.718;73.040;2023-06-19T09:40:15;16.45;;;7.20;;
73331;SDS011;61560;33.718;73.040;2023-06-19T09:42:43;10.98;;;6.88;;
73331;SDS011;61560;33.718;73.040;2023-06-19T09:45:23;13.35;;;8.10;;
73331;SDS011;61560;33.718;73.040;2023-06-19T09:47:53;14.73;;;7.57;;
73331;SDS011;61560;33.718;73.040;2023-06-19T09:50:21;11.60;;;7.55;;
73331;SDS011;61560;33.718;73.040;2023-06-19T09:52:54;13.40;;;7.55;;
73331;SDS011;61560;33.718;73.040;2023-06-19T09:55:22;14.25;;;7.63;;
73331;SDS011;61560;33.718;73.040;2023-06-19T09:57:55;13.52;;;7.30;;
73331;SDS011;61560;33.718;73.040;2023-06-19T10:00:23;13.88;;;7.53;;
73331;SDS011;61560;33.718;73.040;2023-06-19T10:02:57;9.98;;;6.68;;
73331;SDS011;61560;33.718;73.040;2023-06-19T10:05:30;15.20;;;7.50;;
73331;SDS011;61560;33.718;73.040;2023-06-19T10:08:01;16.20;;;7.60;;
73331;SDS011;61560;33.718;73.040;2023-06-19T10:10:32;15.40;;;7.72;;
73331;SDS011;61560;33.718;73.040;2023-06-19T10:13:13;17.67;;;7.50;;
73331;SDS011;61560;33.718;73.040;2023-06-19T10:15:43;10.60;;;7.15;;
73331;SDS011;61560;33.718;73.040;2023-06-19T10:18:17;16.23;;;7.25;;
73331;SDS011;61560;33.718;73.040;2023-06-19T10:20:45;17.95;;;7.47;;
73331;SDS011;61560;33.718;73.040;2023-06-19T10:23:16;13.85;;;7.47;;
73331;SDS011;61560;33.718;73.040;2023-06-19T10:25:46;14.13;;;6.90;;
73331;SDS011;61560;33.718;73.040;2023-06-19T10:28:36;12.43;;;6.65;;
73331;SDS011;61560;33.718;73.040;2023-06-19T10:31:04;14.43;;;7.35;;
73331;SDS011;61560;33.718;73.040;2023-06-19T10:33:35;17.90;;;8.73;;
73331;SDS011;61560;33.718;73.040;2023-06-19T10:36:20;15.50;;;8.45;;
73331;SDS011;61560;33.718;73.040;2023-06-19T10:38:51;19.73;;;8.35;;
73331;SDS011;61560;33.718;73.040;2023-06-19T10:41:21;20.30;;;9.05;;
73331;SDS011;61560;33.718;73.040;2023-06-19T10:46:28;17.13;;;8.75;;
73331;SDS011;61560;33.718;73.040;2023-06-19T10:48:58;17.65;;;8.38;;
73331;SDS011;61560;33.718;73.040;2023-06-19T10:51:31;15.45;;;8.77;;
73331;SDS011;61560;33.718;73.040;2023-06-19T10:54:02;16.80;;;8.98;;
73331;SDS011;61560;33.718;73.040;2023-06-19T10:56:33;14.82;;;9.23;;
73331;SDS011;61560;33.718;73.040;2023-06-19T10:59:07;19.35;;;9.57;;
73331;SDS011;61560;33.718;73.040;2023-06-19T11:01:38;18.52;;;9.48;;
73331;SDS011;61560;33.718;73.040;2023-06-19T11:04:26;18.90;;;10.63;;
73331;SDS011;61560;33.718;73.040;2023-06-19T11:06:54;18.45;;;9.90;;
73331;SDS011;61560;33.718;73.040;2023-06-19T11:09:23;19.13;;;9.45;;
73331;SDS011;61560;33.718;73.040;2023-06-19T11:11:53;17.52;;;9.13;;
73331;SDS011;61560;33.718;73.040;2023-06-19T11:14:20;16.23;;;8.95;;
73331;SDS011;61560;33.718;73.040;2023-06-19T11:16:48;16.50;;;10.10;;
73331;SDS011;61560;33.718;73.040;2023-06-19T11:19:17;14.30;;;9.00;;
73331;SDS011;61560;33.718;73.040;2023-06-19T11:21:47;16.37;;;8.67;;
73331;SDS011;61560;33.718;73.040;2023-06-19T11:24:19;15.48;;;9.52;;
73331;SDS011;61560;33.718;73.040;2023-06-19T11:26:50;26.67;;;12.50;;
73331;SDS011;61560;33.718;73.040;2023-06-19T11:29:30;18.40;;;9.30;;
73331;SDS011;61560;33.718;73.040;2023-06-19T11:32:14;19.17;;;9.10;;
73331;SDS011;61560;33.718;73.040;2023-06-19T11:34:51;17.67;;;8.02;;
73331;SDS011;61560;33.718;73.040;2023-06-19T11:37:20;16.08;;;8.18;;
73331;SDS011;61560;33.718;73.040;2023-06-19T11:39:49;15.52;;;8.35;;
73331;SDS011;61560;33.718;73.040;2023-06-19T11:42:18;16.38;;;9.05;;
73331;SDS011;61560;33.718;73.040;2023-06-19T11:44:57;14.85;;;8.60;;
73331;SDS011;61560;33.718;73.040;2023-06-19T11:47:33;14.95;;;8.80;;
73331;SDS011;61560;33.718;73.040;2023-06-19T11:50:03;14.88;;;8.35;;
73331;SDS011;61560;33.718;73.040;2023-06-19T11:52:33;19.90;;;9.27;;
73331;SDS011;61560;33.718;73.040;2023-06-19T11:55:01;16.52;;;8.90;;
73331;SDS011;61560;33.718;73.040;2023-06-19T11:57:29;15.75;;;8.88;;
73331;SDS011;61560;33.718;73.040;2023-06-19T11:59:59;16.37;;;8.27;;
73331;SDS011;61560;33.718;73.040;2023-06-19T12:02:27;15.10;;;8.48;;
73331;SDS011;61560;33.718;73.040;2023-06-19T12:04:55;24.15;;;8.65;;
73331;SDS011;61560;33.718;73.040;2023-06-19T12:07:22;14.65;;;8.10;;
73331;SDS011;61560;33.718;73.040;2023-06-19T12:09:51;17.05;;;8.65;;
73331;SDS011;61560;33.718;73.040;2023-06-19T12:12:19;16.60;;;8.65;;
73331;SDS011;61560;33.718;73.040;2023-06-19T12:14:47;14.07;;;8.13;;
73331;SDS011;61560;33.718;73.040;2023-06-19T12:17:14;11.88;;;7.95;;
73331;SDS011;61560;33.718;73.040;2023-06-19T12:19:45;15.40;;;8.20;;
73331;SDS011;61560;33.718;73.040;2023-06-19T12:22:15;13.50;;;8.07;;
73331;SDS011;61560;33.718;73.040;2023-06-19T12:24:42;17.25;;;8.63;;
73331;SDS011;61560;33.718;73.040;2023-06-19T12:27:10;13.00;;;7.63;;
73331;SDS011;61560;33.718;73.040;2023-06-19T12:29:38;17.95;;;8.32;;
73331;SDS011;61560;33.718;73.040;2023-06-19T12:32:06;16.23;;;8.13;;
73331;SDS011;61560;33.718;73.040;2023-06-19T12:34:34;17.10;;;9.35;;
73331;SDS011;61560;33.718;73.040;2023-06-19T12:37:02;24.20;;;10.48;;
73331;SDS011;61560;33.718;73.040;2023-06-19T12:39:29;21.55;;;10.23;;
73331;SDS011;61560;33.718;73.040;2023-06-19T12:41:57;20.13;;;11.30;;
73331;SDS011;61560;33.718;73.040;2023-06-19T12:44:28;17.95;;;9.68;;
73331;SDS011;61560;33.718;73.040;2023-06-19T12:46:56;18.73;;;10.18;;
73331;SDS011;61560;33.718;73.040;2023-06-19T12:49:26;22.40;;;11.30;;
73331;SDS011;61560;33.718;73.040;2023-06-19T12:51:54;42.33;;;15.23;;
73331;SDS011;61560;33.718;73.040;2023-06-19T12:54:21;29.70;;;12.15;;
73331;SDS011;61560;33.718;73.040;2023-06-19T12:56:49;21.50;;;11.18;;
73331;SDS011;61560;33.718;73.040;2023-06-19T12:59:17;20.80;;;8.93;;
73331;SDS011;61560;33.718;73.040;2023-06-19T13:01:45;19.58;;;9.02;;
73331;SDS011;61560;33.718;73.040;2023-06-19T13:04:13;19.85;;;9.65;;
73331;SDS011;61560;33.718;73.040;2023-06-19T13:06:45;20.13;;;8.50;;
73331;SDS011;61560;33.718;73.040;2023-06-19T13:09:13;19.35;;;8.38;;
73331;SDS011;61560;33.718;73.040;2023-06-19T13:11:40;15.38;;;7.82;;
73331;SDS011;61560;33.718;73.040;2023-06-19T13:14:08;16.85;;;8.27;;
73331;SDS011;61560;33.718;73.040;2023-06-19T13:16:39;13.15;;;6.97;;
73331;SDS011;61560;33.718;73.040;2023-06-19T13:19:06;14.75;;;8.00;;
73331;SDS011;61560;33.718;73.040;2023-06-19T13:21:34;13.10;;;7.57;;
73331;SDS011;61560;33.718;73.040;2023-06-19T13:24:02;11.73;;;7.40;;
73331;SDS011;61560;33.718;73.040;2023-06-19T13:26:30;15.43;;;8.60;;
73331;SDS011;61560;33.718;73.040;2023-06-19T13:28:58;18.17;;;9.32;;
73331;SDS011;61560;33.718;73.040;2023-06-19T13:31:27;15.43;;;8.55;;
73331;SDS011;61560;33.718;73.040;2023-06-19T13:33:54;18.63;;;8.32;;
73331;SDS011;61560;33.718;73.040;2023-06-19T13:36:22;15.95;;;9.45;;
73331;SDS011;61560;33.718;73.040;2023-06-19T13:38:53;13.68;;;7.20;;
73331;SDS011;61560;33.718;73.040;2023-06-19T13:41:20;18.88;;;8.90;;
73331;SDS011;61560;33.718;73.040;2023-06-19T13:43:53;15.50;;;7.93;;
73331;SDS011;61560;33.718;73.040;2023-06-19T13:46:20;16.50;;;8.23;;
73331;SDS011;61560;33.718;73.040;2023-06-19T13:48:49;17.48;;;7.93;;
73331;SDS011;61560;33.718;73.040;2023-06-19T13:51:18;16.08;;;8.77;;
73331;SDS011;61560;33.718;73.040;2023-06-19T13:53:47;20.55;;;9.23;;
73331;SDS011;61560;33.718;73.040;2023-06-19T13:56:15;14.95;;;8.68;;
73331;SDS011;61560;33.718;73.040;2023-06-19T13:58:46;18.38;;;9.38;;
73331;SDS011;61560;33.718;73.040;2023-06-19T14:01:14;23.77;;;10.70;;
73331;SDS011;61560;33.718;73.040;2023-06-19T14:03:46;23.63;;;11.68;;
73331;SDS011;61560;33.718;73.040;2023-06-19T14:06:18;28.98;;;14.23;;
73331;SDS011;61560;33.718;73.040;2023-06-19T14:08:45;23.67;;;10.50;;
73331;SDS011;61560;33.718;73.040;2023-06-19T14:11:13;28.27;;;12.93;;
73331;SDS011;61560;33.718;73.040;2023-06-19T14:13:41;24.25;;;12.50;;
73331;SDS011;61560;33.718;73.040;2023-06-19T14:16:09;23.90;;;11.85;;
73331;SDS011;61560;33.718;73.040;2023-06-19T14:18:37;25.52;;;11.98;;
73331;SDS011;61560;33.718;73.040;2023-06-19T14:21:05;29.92;;;14.07;;
73331;SDS011;61560;33.718;73.040;2023-06-19T14:23:36;33.75;;;15.05;;
73331;SDS011;61560;33.718;73.040;2023-06-19T14:26:12;31.23;;;15.32;;
73331;SDS011;61560;33.718;73.040;2023-06-19T14:28:40;34.00;;;18.02;;
73331;SDS011;61560;33.718;73.040;2023-06-19T14:31:08;54.72;;;28.02;;
73331;SDS011;61560;33.718;73.040;2023-06-19T14:33:36;44.30;;;23.95;;
73331;SDS011;61560;33.718;73.040;2023-06-19T14:38:34;29.00;;;13.85;;
73331;SDS011;61560;33.718;73.040;2023-06-19T14:41:02;21.83;;;12.32;;
73331;SDS011;61560;33.718;73.040;2023-06-19T14:43:30;24.60;;;13.18;;